Time;durP1;ratioP1;P1;durP2;ratioP2;P2;SDS_P1;SDS_P2;PMS_P1;PMS_P2;Temp;Humidity;BMP_temperature;BMP_pressure;BME280_temperature;BME280_humidity;BME280_pressure;Samples;Min_cycle;Max_cycle;Signal;HPM_P1;HPM_P2
2021/10/09 04:00:24;;;;;;;20.90;17.73;;;9.20;99.90;;;;;;6178200;22;21430;-70
2021/10/09 04:02:51;;;;;;;22.03;18.70;;;9.20;99.90;;;;;;6249525;23;20396;-70
2021/10/09 04:05:18;;;;;;;23.97;18.30;;;9.20;99.90;;;;;;6249391;23;20407;-70
2021/10/09 04:07:45;;;;;;;20.50;18.33;;;9.10;99.90;;;;;;6257937;23;20394;-70
2021/10/09 04:10:12;;;;;;;25.97;17.30;;;9.10;99.90;;;;;;6248889;22;20411;-70
2021/10/09 04:12:39;;;;;;;20.40;17.57;;;9.10;99.90;;;;;;6249258;23;20417;-71
2021/10/09 04:15:07;;;;;;;24.20;18.30;;;9.10;99.90;;;;;;6249346;23;20757;-70
2021/10/09 04:17:35;;;;;;;20.50;17.13;;;9.10;99.90;;;;;;6249423;23;20751;-70
2021/10/09 04:20:02;;;;;;;20.57;18.40;;;9.10;99.90;;;;;;6251465;23;20415;-70
2021/10/09 04:22:28;;;;;;;20.67;18.57;;;9.00;99.90;;;;;;6257627;22;20817;-70
2021/10/09 04:24:55;;;;;;;20.60;18.03;;;8.90;99.90;;;;;;6258933;23;20407;-70
2021/10/09 04:27:22;;;;;;;19.17;17.10;;;9.00;99.90;;;;;;6257104;23;20407;-70
2021/10/09 04:29:49;;;;;;;29.83;18.93;;;9.00;99.90;;;;;;6254570;23;20430;-70
2021/10/09 04:32:16;;;;;;;24.20;19.13;;;9.00;99.90;;;;;;6249053;22;20427;-70
2021/10/09 04:34:44;;;;;;;23.40;18.93;;;9.00;99.90;;;;;;6249594;23;20431;-70
2021/10/09 04:37:10;;;;;;;20.10;16.70;;;9.00;99.90;;;;;;6249344;23;20411;-70
2021/10/09 04:39:37;;;;;;;19.43;17.27;;;9.10;99.90;;;;;;6248800;23;20417;-70
2021/10/09 04:42:04;;;;;;;24.93;17.77;;;9.10;99.90;;;;;;6249005;22;20435;-70
2021/10/09 04:44:31;;;;;;;19.30;17.30;;;9.10;99.90;;;;;;6249154;23;20429;-70
2021/10/09 04:46:58;;;;;;;21.20;18.30;;;9.10;99.90;;;;;;6259090;23;20884;-70
2021/10/09 04:49:24;;;;;;;22.10;18.43;;;9.10;99.90;;;;;;6248912;23;20410;-70
2021/10/09 04:51:52;;;;;;;20.30;17.80;;;9.10;99.90;;;;;;6248711;22;20430;-70
2021/10/09 04:54:19;;;;;;;21.03;18.93;;;9.10;99.90;;;;;;6248849;23;20435;-70
2021/10/09 04:56:46;;;;;;;23.90;19.63;;;9.10;99.90;;;;;;6248906;23;20395;-70
2021/10/09 04:59:13;;;;;;;22.60;18.53;;;9.00;99.90;;;;;;6248209;23;20417;-70
2021/10/09 05:01:39;;;;;;;22.87;19.20;;;9.00;99.90;;;;;;6251935;22;20448;-70
2021/10/09 05:04:06;;;;;;;24.70;18.50;;;8.90;99.90;;;;;;6261174;23;20895;-70
2021/10/09 05:06:33;;;;;;;21.77;18.10;;;9.00;99.90;;;;;;6257491;23;20411;-70
2021/10/09 05:09:01;;;;;;;25.70;18.70;;;9.00;99.90;;;;;;6248787;23;20415;-70
2021/10/09 05:11:28;;;;;;;21.63;18.73;;;9.00;99.90;;;;;;6249023;22;20488;-70
2021/10/09 05:13:56;;;;;;;20.30;18.20;;;9.00;99.90;;;;;;6249360;23;20411;-70
2021/10/09 05:16:22;;;;;;;25.33;20.83;;;9.00;99.90;;;;;;6248412;23;20414;-70
2021/10/09 05:18:49;;;;;;;19.50;17.50;;;9.00;99.90;;;;;;6249937;23;20414;-70
2021/10/09 05:21:16;;;;;;;19.60;17.53;;;9.00;99.90;;;;;;6248200;22;20437;-70
2021/10/09 05:23:43;;;;;;;21.27;18.93;;;9.00;99.90;;;;;;6248893;23;20418;-70
2021/10/09 05:26:11;;;;;;;27.37;20.30;;;9.00;99.90;;;;;;6247932;23;20742;-70
2021/10/09 05:28:42;;;;;;;23.63;18.83;;;9.00;99.90;;;;;;6247851;23;20773;-71
2021/10/09 05:31:11;;;;;;;23.70;18.97;;;9.00;99.90;;;;;;6247839;22;20442;-70
2021/10/09 05:33:38;;;;;;;22.17;17.00;;;9.00;99.90;;;;;;6248298;23;20465;-70
2021/10/09 05:36:06;;;;;;;22.97;19.17;;;9.00;99.90;;;;;;6248681;23;20498;-70
2021/10/09 05:38:33;;;;;;;21.53;17.83;;;9.00;99.90;;;;;;6251134;23;20418;-70
2021/10/09 05:41:00;;;;;;;24.40;18.47;;;9.00;99.90;;;;;;6249378;22;20434;-70
2021/10/09 05:43:30;;;;;;;23.57;18.37;;;9.00;99.90;;;;;;6247620;23;20418;-70
2021/10/09 05:45:57;;;;;;;19.73;17.70;;;9.00;99.90;;;;;;6247374;23;20453;-71
2021/10/09 05:48:23;;;;;;;23.47;18.60;;;9.00;99.90;;;;;;6248324;23;20489;-71
2021/10/09 05:50:55;;;;;;;24.23;18.23;;;9.00;99.90;;;;;;6247925;22;20442;-71
2021/10/09 05:53:43;;;;;;;20.33;17.60;;;9.00;99.90;;;;;;6248778;23;20395;-71
2021/10/09 05:56:13;;;;;;;19.97;17.83;;;9.10;99.90;;;;;;6247787;23;20425;-71
2021/10/09 05:58:51;;;;;;;23.30;18.00;;;9.10;99.90;;;;;;6247620;23;20859;-71
2021/10/09 06:31:00;;;;;;;20.97;18.60;;;9.80;99.90;;;;;;6247448;23;20379;-70
2021/10/09 06:32:07;;;;;;;22.87;18.73;;;10.00;99.90;;;;;;6247163;22;20468;-70
2021/10/09 06:59:32;;;;;;;18.77;16.83;;;15.40;99.90;;;;;;6247666;23;20862;-70
2021/10/09 07:01:59;;;;;;;18.33;16.40;;;15.30;99.90;;;;;;6247132;22;20438;-70
2021/10/09 07:04:28;;;;;;;17.20;15.50;;;15.90;99.90;;;;;;6247822;23;20506;-71
2021/10/09 07:06:56;;;;;;;17.73;15.97;;;15.80;99.90;;;;;;6248497;23;20399;-71
2021/10/09 07:09:22;;;;;;;23.73;16.33;;;16.00;99.90;;;;;;6250249;23;20410;-71
2021/10/09 07:11:49;;;;;;;16.53;14.93;;;16.00;99.90;;;;;;6249911;22;20434;-71
2021/10/09 07:14:16;;;;;;;16.93;15.30;;;16.80;99.90;;;;;;6249152;23;20429;-71
2021/10/09 07:16:43;;;;;;;16.80;15.17;;;17.30;99.90;;;;;;6248412;23;20434;-71
2021/10/09 07:19:09;;;;;;;19.47;17.53;;;17.40;99.90;;;;;;6248310;23;20418;-71
2021/10/09 07:21:37;;;;;;;16.83;15.10;;;17.20;99.90;;;;;;6247704;22;20435;-70
2021/10/09 07:24:05;;;;;;;16.80;15.30;;;17.60;99.90;;;;;;6248707;23;20417;-70
2021/10/09 07:26:31;;;;;;;17.63;14.90;;;18.30;99.90;;;;;;6247766;23;20506;-71
2021/10/09 07:28:58;;;;;;;16.80;15.30;;;18.60;99.90;;;;;;6247189;23;20738;-71
2021/10/09 07:31:25;;;;;;;15.97;14.40;;;18.90;99.90;;;;;;6246952;22;20441;-71
2021/10/09 07:33:51;;;;;;;17.23;14.90;;;18.80;99.90;;;;;;6247038;23;20457;-70
2021/10/09 07:36:18;;;;;;;18.43;16.40;;;19.00;99.90;;;;;;6247286;23;20438;-71
2021/10/09 07:38:46;;;;;;;17.80;15.00;;;19.20;99.90;;;;;;6248522;23;20411;-71
2021/10/09 07:41:13;;;;;;;16.47;14.30;;;19.70;99.90;;;;;;6249287;22;20430;-71
2021/10/09 07:43:40;;;;;;;17.10;13.80;;;19.50;99.90;;;;;;6249103;23;20410;-71
2021/10/09 07:46:06;;;;;;;16.47;14.13;;;20.10;99.50;;;;;;6249247;23;20470;-69
2021/10/09 07:48:33;;;;;;;19.77;14.93;;;20.50;99.20;;;;;;6249305;23;20413;-69
2021/10/09 07:51:00;;;;;;;19.30;15.73;;;21.10;97.60;;;;;;6248818;22;20431;-71
2021/10/09 07:53:26;;;;;;;19.33;14.17;;;21.50;96.10;;;;;;6249101;23;20694;-71
2021/10/09 07:55:54;;;;;;;16.43;14.83;;;22.00;95.70;;;;;;6248844;23;20430;-71
2021/10/09 07:58:21;;;;;;;15.10;13.47;;;22.50;94.20;;;;;;6249509;23;20417;-71
2021/10/09 08:00:48;;;;;;;17.33;15.23;;;22.10;94.10;;;;;;6248817;22;20461;-71
2021/10/09 08:03:14;;;;;;;16.67;15.00;;;22.50;92.90;;;;;;6249621;23;20417;-71
2021/10/09 08:05:43;;;;;;;15.43;14.03;;;23.20;92.10;;;;;;6249922;23;20584;-71
2021/10/09 08:08:09;;;;;;;18.00;16.23;;;23.30;91.20;;;;;;6249995;23;20411;-71
2021/10/09 08:10:36;;;;;;;16.07;14.57;;;22.00;92.20;;;;;;6249738;22;20439;-71
2021/10/09 08:13:04;;;;;;;17.33;15.37;;;22.10;92.10;;;;;;6249637;23;20892;-69
2021/10/09 08:15:31;;;;;;;16.77;15.17;;;22.90;91.80;;;;;;6248422;23;20438;-69
2021/10/09 08:17:58;;;;;;;17.03;14.33;;;22.80;90.80;;;;;;6249127;23;20415;-69
2021/10/09 08:20:25;;;;;;;16.73;15.23;;;22.70;90.70;;;;;;6247903;22;20742;-69
2021/10/09 08:23:01;;;;;;;16.47;14.87;;;22.70;90.80;;;;;;6248733;23;20411;-69
2021/10/09 08:25:55;;;;;;;18.23;15.50;;;23.50;90.10;;;;;;6249979;23;20398;-71
2021/10/09 08:36:37;;;;;;;16.60;14.93;;;24.10;85.60;;;;;;6249424;23;20418;-71
2021/10/09 08:39:04;;;;;;;16.53;15.13;;;24.50;83.30;;;;;;6248392;23;20891;-71
2021/10/09 08:41:32;;;;;;;16.53;15.03;;;24.00;83.90;;;;;;6251817;22;20434;-71
2021/10/09 08:44:00;;;;;;;18.13;16.03;;;24.90;84.10;;;;;;6252211;23;20945;-71
2021/10/09 08:46:27;;;;;;;16.23;14.73;;;24.70;79.70;;;;;;6249276;23;20407;-71
2021/10/09 08:48:54;;;;;;;16.90;15.13;;;25.20;80.10;;;;;;6250872;23;20407;-71
2021/10/09 08:51:22;;;;;;;15.70;14.23;;;25.00;80.50;;;;;;6250687;22;20435;-71
2021/10/09 08:53:49;;;;;;;17.33;15.70;;;24.90;77.70;;;;;;6251272;23;20418;-71
2021/10/09 08:56:38;;;;;;;17.63;15.70;;;25.10;79.20;;;;;;6249383;23;20454;-71
2021/10/09 08:59:16;;;;;;;18.60;16.77;;;24.70;79.10;;;;;;6239661;23;20485;-71
2021/10/09 09:01:54;;;;;;;18.67;16.87;;;25.20;76.80;;;;;;6248710;22;20434;-71
2021/10/09 09:32:39;;;;;;;16.03;14.53;;;27.10;72.00;;;;;;6248717;22;20736;-71
2021/10/09 09:40:58;;;;;;;15.67;14.47;;;28.20;65.10;;;;;;6248683;22;20430;-71
2021/10/09 09:43:39;;;;;;;17.10;14.30;;;28.70;63.30;;;;;;6248953;23;20418;-71
2021/10/09 09:46:13;;;;;;;15.60;14.07;;;28.90;62.10;;;;;;6249515;23;20398;-71
2021/10/09 09:48:43;;;;;;;17.23;14.10;;;29.10;61.40;;;;;;6248402;23;20910;-71
2021/10/09 09:51:11;;;;;;;16.50;14.90;;;29.90;59.40;;;;;;6249624;22;20432;-71
2021/10/09 09:53:39;;;;;;;16.03;14.53;;;29.40;57.50;;;;;;6248911;23;20414;-71
2021/10/09 09:56:07;;;;;;;16.67;15.10;;;28.00;61.00;;;;;;6248550;23;20431;-71
2021/10/09 09:58:37;;;;;;;17.40;15.60;;;27.70;62.00;;;;;;6248877;23;20411;-71
2021/10/09 10:01:07;;;;;;;16.73;14.90;;;28.10;63.10;;;;;;6248686;22;20443;-71
2021/10/09 10:03:34;;;;;;;17.83;16.23;;;28.10;62.30;;;;;;6247904;23;20422;-71
2021/10/09 10:06:02;;;;;;;18.53;16.63;;;27.30;63.10;;;;;;6251412;23;20407;-70
2021/10/09 10:08:30;;;;;;;16.10;14.43;;;27.00;65.00;;;;;;6253843;23;20410;-70
2021/10/09 10:10:58;;;;;;;16.63;15.13;;;26.60;66.20;;;;;;6266053;22;20450;-69
2021/10/09 10:13:28;;;;;;;16.20;14.70;;;26.20;65.00;;;;;;6256507;23;20411;-70
2021/10/09 10:15:55;;;;;;;17.30;15.50;;;26.10;67.30;;;;;;6259202;23;20434;-70
2021/10/09 10:18:48;;;;;;;17.17;15.63;;;26.60;67.30;;;;;;6259050;23;20415;-70
2021/10/09 10:21:17;;;;;;;16.40;14.90;;;26.40;65.90;;;;;;6250145;22;20431;-70
2021/10/09 10:23:45;;;;;;;19.70;15.33;;;26.80;65.20;;;;;;6249628;23;20417;-70
2021/10/09 10:26:30;;;;;;;17.13;14.50;;;27.10;66.00;;;;;;6248590;23;20464;-68
2021/10/09 10:29:23;;;;;;;16.97;15.57;;;27.10;66.10;;;;;;6248840;23;20399;-68
2021/10/09 10:32:10;;;;;;;20.30;15.90;;;26.40;65.40;;;;;;6247635;22;20485;-68
2021/10/09 10:34:37;;;;;;;17.57;15.90;;;25.90;68.80;;;;;;6247286;23;20410;-68
2021/10/09 10:37:05;;;;;;;17.20;15.70;;;25.90;67.40;;;;;;6247217;23;20434;-64
2021/10/09 10:39:41;;;;;;;16.00;14.30;;;26.30;67.90;;;;;;6246987;23;20832;-65
2021/10/09 10:42:27;;;;;;;15.03;13.73;;;26.30;68.10;;;;;;6247002;22;20431;-66
2021/10/09 10:45:04;;;;;;;14.10;12.90;;;26.60;69.20;;;;;;6247238;23;20395;-66
2021/10/09 10:47:49;;;;;;;15.57;14.37;;;26.30;67.90;;;;;;6247233;23;20814;-64
2021/10/09 10:50:53;;;;;;;18.23;14.90;;;26.00;68.90;;;;;;6246902;22;20498;-64
2021/10/09 10:53:28;;;;;;;17.43;15.73;;;25.00;70.30;;;;;;6248045;23;20844;-67
2021/10/09 10:56:08;;;;;;;15.97;14.40;;;24.10;69.40;;;;;;6246950;23;20446;-67
2021/10/09 10:58:35;;;;;;;15.93;14.40;;;23.70;73.40;;;;;;6246597;23;20418;-67
2021/10/09 11:01:23;;;;;;;15.67;14.17;;;23.10;73.60;;;;;;6246938;22;20530;-70
2021/10/09 11:03:52;;;;;;;17.30;15.67;;;22.90;75.30;;;;;;6248432;23;20721;-71
2021/10/09 11:06:21;;;;;;;16.60;14.77;;;22.60;75.50;;;;;;6249008;23;20449;-70
2021/10/09 11:08:50;;;;;;;16.27;14.60;;;21.90;77.70;;;;;;6247096;23;20418;-68
2021/10/09 11:11:17;;;;;;;16.93;15.50;;;21.60;80.80;;;;;;6246523;22;20435;-71
2021/10/09 11:13:48;;;;;;;15.60;14.00;;;21.80;83.10;;;;;;6247897;23;20418;-71
2021/10/09 11:16:15;;;;;;;15.80;14.30;;;21.70;79.50;;;;;;6248457;23;20418;-72
2021/10/09 11:18:49;;;;;;;15.73;14.00;;;21.40;79.20;;;;;;6248594;23;20927;-71
2021/10/09 11:21:18;;;;;;;16.87;14.90;;;21.40;80.60;;;;;;6248926;22;20437;-71
2021/10/09 11:23:54;;;;;;;17.03;15.27;;;21.20;80.90;;;;;;6248868;23;20445;-71
2021/10/09 11:26:21;;;;;;;16.57;14.43;;;20.80;82.40;;;;;;6248861;23;20848;-72
2021/10/09 11:29:00;;;;;;;16.70;15.27;;;20.70;83.40;;;;;;6249352;23;20739;-72
2021/10/09 11:31:28;;;;;;;14.90;13.00;;;20.80;88.30;;;;;;6249969;22;20430;-72
2021/10/09 11:33:56;;;;;;;16.17;14.57;;;20.70;83.80;;;;;;6251457;23;20910;-71
2021/10/09 11:36:23;;;;;;;19.10;14.90;;;21.00;82.50;;;;;;6249566;23;20431;-72
2021/10/09 11:39:03;;;;;;;16.20;14.70;;;20.90;82.70;;;;;;6249851;23;20437;-72
2021/10/09 11:41:30;;;;;;;14.33;12.83;;;20.70;84.30;;;;;;6249272;22;20462;-72
2021/10/09 11:44:01;;;;;;;14.60;13.17;;;21.00;83.70;;;;;;6249156;23;20421;-72
2021/10/09 11:46:47;;;;;;;15.50;13.77;;;21.10;82.20;;;;;;6250090;23;20445;-71
2021/10/09 11:54:54;;;;;;;13.13;11.83;;;21.20;83.80;;;;;;6260054;23;20765;-71
2021/10/09 11:57:21;;;;;;;14.80;12.87;;;21.30;79.80;;;;;;6249092;23;20418;-72
2021/10/09 11:59:48;;;;;;;13.93;12.53;;;21.00;81.10;;;;;;6248954;23;20417;-71
2021/10/09 12:02:33;;;;;;;13.43;12.27;;;21.10;80.70;;;;;;6248667;22;20819;-71
2021/10/09 12:04:59;;;;;;;12.90;11.70;;;21.00;80.50;;;;;;6249576;23;20395;-71
2021/10/09 12:07:27;;;;;;;13.87;12.50;;;21.10;81.90;;;;;;6249414;23;20415;-71
2021/10/09 12:10:00;;;;;;;12.97;11.77;;;21.30;81.70;;;;;;6248773;23;20410;-71
2021/10/09 12:12:31;;;;;;;12.63;11.43;;;21.40;81.50;;;;;;6249142;22;20533;-72
2021/10/09 12:14:59;;;;;;;13.60;12.30;;;21.40;76.00;;;;;;6249120;23;20478;-71
2021/10/09 12:17:37;;;;;;;16.03;12.30;;;21.20;80.20;;;;;;6248940;23;20473;-72
2021/10/09 12:20:06;;;;;;;13.73;12.33;;;21.20;79.20;;;;;;6249295;23;20403;-72
2021/10/09 12:22:43;;;;;;;13.30;12.10;;;21.00;80.90;;;;;;6248303;22;20955;-71
2021/10/09 12:25:22;;;;;;;13.53;12.33;;;21.00;81.30;;;;;;6248579;23;20410;-71
2021/10/09 12:27:55;;;;;;;12.93;11.30;;;21.30;84.50;;;;;;6248949;23;20391;-72
2021/10/09 12:30:22;;;;;;;18.70;11.33;;;20.90;79.80;;;;;;6249252;22;20404;-71
2021/10/09 12:32:50;;;;;;;12.03;11.03;;;21.00;80.90;;;;;;6248405;23;20888;-72
2021/10/09 12:35:21;;;;;;;13.33;11.67;;;20.90;81.50;;;;;;6248396;23;20411;-71
2021/10/09 12:37:55;;;;;;;15.13;11.83;;;20.90;82.20;;;;;;6247934;23;20794;-68
2021/10/09 12:40:25;;;;;;;13.27;11.80;;;20.90;81.40;;;;;;6248220;22;20438;-68
2021/10/09 12:42:54;;;;;;;12.17;10.97;;;21.00;81.40;;;;;;6249685;23;20433;-69
2021/10/09 12:45:23;;;;;;;10.77;9.77;;;21.00;81.90;;;;;;6248170;23;20410;-69
2021/10/09 12:47:50;;;;;;;10.50;9.60;;;21.00;80.90;;;;;;6249009;23;20417;-70
2021/10/09 12:50:18;;;;;;;12.03;10.97;;;21.20;79.70;;;;;;6248428;22;20411;-69
2021/10/09 12:52:45;;;;;;;10.70;9.73;;;21.30;78.20;;;;;;6248079;23;20410;-69
2021/10/09 12:55:13;;;;;;;11.23;9.90;;;21.30;79.30;;;;;;6248561;23;20411;-69
2021/10/09 12:57:51;;;;;;;11.10;9.70;;;21.30;81.70;;;;;;6258085;23;20453;-68
2021/10/09 13:00:18;;;;;;;10.27;9.27;;;21.60;76.50;;;;;;6248355;22;20417;-69
2021/10/09 13:02:45;;;;;;;10.73;8.93;;;21.60;75.80;;;;;;6248623;23;20400;-69
2021/10/09 13:05:12;;;;;;;10.23;9.33;;;21.60;74.70;;;;;;6248115;23;20410;-69
2021/10/09 13:07:39;;;;;;;9.30;8.40;;;21.50;74.40;;;;;;6248037;23;20406;-69
2021/10/09 13:10:07;;;;;;;8.50;7.80;;;21.60;73.10;;;;;;6247796;23;20751;-69
2021/10/09 13:12:33;;;;;;;8.80;7.90;;;21.70;73.10;;;;;;6248378;22;20786;-69
2021/10/09 13:15:01;;;;;;;9.03;8.33;;;21.60;73.20;;;;;;6248330;23;20417;-69
2021/10/09 13:17:28;;;;;;;9.50;8.60;;;21.50;74.00;;;;;;6250487;23;20441;-68
2021/10/09 13:19:55;;;;;;;9.37;8.33;;;21.70;73.80;;;;;;6249065;23;20866;-68
2021/10/09 13:22:22;;;;;;;9.10;8.27;;;21.60;72.90;;;;;;6247730;22;20766;-69
2021/10/09 13:24:49;;;;;;;10.83;9.73;;;21.60;70.90;;;;;;6247941;23;20418;-68
2021/10/09 13:27:15;;;;;;;9.87;8.80;;;21.40;72.30;;;;;;6249254;23;20510;-69
2021/10/09 13:29:42;;;;;;;10.07;9.10;;;21.50;74.70;;;;;;6248866;23;20411;-69
2021/10/09 13:32:11;;;;;;;11.50;9.70;;;21.40;75.70;;;;;;6249436;22;20431;-69
2021/10/09 13:34:37;;;;;;;9.50;8.60;;;21.50;74.00;;;;;;6259318;23;20503;-68
2021/10/09 13:37:04;;;;;;;9.63;8.13;;;21.60;74.50;;;;;;6248105;23;20562;-70
2021/10/09 13:39:31;;;;;;;9.90;9.00;;;21.60;75.80;;;;;;6248769;23;20410;-69
2021/10/09 13:41:58;;;;;;;10.40;9.37;;;21.60;73.70;;;;;;6247992;22;20431;-69
2021/10/09 13:44:25;;;;;;;9.57;8.60;;;21.50;72.40;;;;;;6247618;23;20421;-68
2021/10/09 13:46:51;;;;;;;14.57;9.30;;;21.40;73.20;;;;;;6247171;23;20445;-69
2021/10/09 13:49:19;;;;;;;16.83;9.17;;;21.30;72.50;;;;;;6247346;23;20414;-69
2021/10/09 13:51:46;;;;;;;12.17;10.97;;;21.10;74.90;;;;;;6247937;22;20457;-69
2021/10/09 13:54:13;;;;;;;10.30;9.23;;;21.20;74.60;;;;;;6246884;23;20415;-69
2021/10/09 13:56:39;;;;;;;14.10;11.10;;;21.20;74.20;;;;;;6248113;23;20438;-69
2021/10/09 13:59:06;;;;;;;10.77;9.70;;;21.30;74.50;;;;;;6247403;23;20410;-69
2021/10/09 14:01:33;;;;;;;10.60;9.70;;;21.20;74.30;;;;;;6247992;22;20443;-69
2021/10/09 14:04:00;;;;;;;10.10;9.10;;;21.30;74.10;;;;;;6248093;23;20411;-69
2021/10/09 14:06:28;;;;;;;9.57;8.43;;;21.20;73.60;;;;;;6247910;23;20545;-72
2021/10/09 14:08:55;;;;;;;9.30;8.60;;;21.10;72.30;;;;;;6247967;23;20411;-72
2021/10/09 14:11:22;;;;;;;9.60;8.70;;;21.00;72.70;;;;;;6247519;22;20514;-72
2021/10/09 14:13:49;;;;;;;10.97;9.07;;;21.00;73.50;;;;;;6247616;23;20411;-72
2021/10/09 14:16:16;;;;;;;11.07;9.30;;;20.80;74.40;;;;;;6247405;23;20411;-72
2021/10/09 14:18:43;;;;;;;10.53;9.53;;;20.90;77.00;;;;;;6247444;23;20438;-72
2021/10/09 14:21:09;;;;;;;10.17;9.17;;;20.60;76.30;;;;;;6247030;22;20441;-71
2021/10/09 14:23:39;;;;;;;10.03;9.17;;;20.20;76.40;;;;;;6247514;23;20414;-71
2021/10/09 14:26:06;;;;;;;9.80;8.90;;;20.00;79.00;;;;;;6247462;23;20712;-73
2021/10/09 14:28:33;;;;;;;10.13;9.13;;;20.20;81.00;;;;;;6247428;23;20488;-72
2021/10/09 14:30:59;;;;;;;12.73;11.00;;;20.20;80.60;;;;;;6247648;22;20427;-71
2021/10/09 14:33:26;;;;;;;10.37;9.30;;;20.30;78.90;;;;;;6248154;23;20418;-72
2021/10/09 14:35:53;;;;;;;11.40;10.20;;;20.10;76.30;;;;;;6247917;23;20410;-72
2021/10/09 14:38:20;;;;;;;13.00;11.80;;;19.90;76.20;;;;;;6247491;23;20437;-72
2021/10/09 14:40:48;;;;;;;12.37;11.10;;;20.00;79.30;;;;;;6247952;22;20438;-72
2021/10/09 14:43:15;;;;;;;12.90;11.50;;;19.90;81.20;;;;;;6247542;23;20733;-71
2021/10/09 14:45:43;;;;;;;12.63;11.37;;;20.00;82.30;;;;;;6247714;23;20418;-72
2021/10/09 14:48:14;;;;;;;16.03;11.13;;;20.10;83.70;;;;;;6247163;23;20910;-71
2021/10/09 14:51:06;;;;;;;12.77;11.43;;;20.10;84.10;;;;;;6247385;22;21033;-70
2021/10/09 15:18:22;;;;;;;12.77;11.47;;;18.80;85.40;;;;;;6258927;23;20438;-73
2021/10/09 15:20:50;;;;;;;12.87;11.57;;;18.70;86.80;;;;;;6251626;22;20437;-72
2021/10/09 15:23:17;;;;;;;11.60;10.40;;;18.60;86.80;;;;;;6247722;23;20493;-74
2021/10/09 15:25:45;;;;;;;11.83;10.63;;;18.40;86.80;;;;;;6247962;23;20418;-72
2021/10/09 15:28:13;;;;;;;14.63;10.80;;;18.40;87.20;;;;;;6248785;23;20411;-72
2021/10/09 15:30:40;;;;;;;14.00;12.33;;;18.10;88.60;;;;;;6247159;22;20438;-73
2021/10/09 15:33:07;;;;;;;11.40;10.07;;;18.10;88.70;;;;;;6247319;23;20411;-73
2021/10/09 15:35:34;;;;;;;14.10;11.00;;;18.10;89.10;;;;;;6247347;23;20410;-74
2021/10/09 15:38:02;;;;;;;16.17;10.10;;;18.00;90.10;;;;;;6248344;23;20434;-70
2021/10/09 15:40:28;;;;;;;10.83;9.80;;;18.00;95.00;;;;;;6246951;22;20410;-69
2021/10/09 15:42:55;;;;;;;11.40;10.50;;;17.80;96.70;;;;;;6247362;23;20418;-71
2021/10/09 15:45:24;;;;;;;12.40;11.13;;;17.90;97.30;;;;;;6246709;23;20418;-70
2021/10/09 15:47:52;;;;;;;14.87;11.97;;;17.90;97.30;;;;;;6246910;23;20406;-69
2021/10/09 15:50:19;;;;;;;11.43;10.23;;;17.90;97.10;;;;;;6247443;22;20411;-69
2021/10/09 15:52:46;;;;;;;11.87;10.77;;;18.00;96.80;;;;;;6250265;23;20473;-72
2021/10/09 15:55:13;;;;;;;12.27;11.07;;;18.00;94.10;;;;;;6248711;23;20494;-73
2021/10/09 15:57:40;;;;;;;12.10;11.00;;;17.90;93.10;;;;;;6246332;23;20438;-73
2021/10/09 16:00:09;;;;;;;11.13;9.93;;;17.70;93.20;;;;;;6247912;23;20422;-72
2021/10/09 16:02:38;;;;;;;13.63;10.80;;;17.60;93.90;;;;;;6252391;22;20757;-73
2021/10/09 16:05:07;;;;;;;12.73;11.30;;;17.50;93.70;;;;;;6250642;23;20868;-73
2021/10/09 16:07:34;;;;;;;13.80;11.10;;;17.40;94.20;;;;;;6250701;23;20407;-72
2021/10/09 16:10:01;;;;;;;12.27;11.10;;;17.40;94.40;;;;;;6252080;23;20684;-71
2021/10/09 16:12:28;;;;;;;12.07;10.77;;;17.30;94.00;;;;;;6251321;22;20440;-72
2021/10/09 16:14:55;;;;;;;12.63;11.27;;;17.20;94.40;;;;;;6253627;23;20402;-69
2021/10/09 16:17:23;;;;;;;12.33;11.13;;;17.10;94.80;;;;;;6251006;23;20435;-69
2021/10/09 16:20:00;;;;;;;11.20;9.93;;;17.00;95.30;;;;;;6253086;23;20896;-72
2021/10/09 16:22:27;;;;;;;12.20;11.00;;;16.90;97.50;;;;;;6252640;22;20437;-69
2021/10/09 16:24:55;;;;;;;13.70;10.93;;;16.80;96.00;;;;;;6249250;23;20869;-69
2021/10/09 16:27:21;;;;;;;12.23;11.03;;;16.70;95.90;;;;;;6249695;23;20407;-69
2021/10/09 16:29:48;;;;;;;13.57;11.17;;;16.60;96.00;;;;;;6248833;23;20453;-70
2021/10/09 16:32:17;;;;;;;13.07;11.47;;;16.60;96.30;;;;;;6249505;22;20474;-75
2021/10/09 16:34:44;;;;;;;11.77;10.60;;;16.50;98.30;;;;;;6249230;23;20402;-73
2021/10/09 16:37:12;;;;;;;13.00;11.73;;;16.40;97.40;;;;;;6247790;23;20411;-74
2021/10/09 16:39:39;;;;;;;13.33;11.50;;;16.20;97.70;;;;;;6248463;23;20896;-73
2021/10/09 16:42:06;;;;;;;15.97;12.30;;;16.20;97.70;;;;;;6248833;22;20433;-74
2021/10/09 16:44:33;;;;;;;12.20;10.90;;;16.10;98.20;;;;;;6248241;23;20815;-72
2021/10/09 16:46:59;;;;;;;12.60;11.30;;;15.90;98.70;;;;;;6248259;23;20907;-73
2021/10/09 16:49:26;;;;;;;12.73;11.53;;;15.90;99.00;;;;;;6248174;23;20407;-73
2021/10/09 16:51:53;;;;;;;15.07;11.43;;;15.80;99.10;;;;;;6247963;22;20435;-73
2021/10/09 16:54:21;;;;;;;12.27;11.17;;;15.80;99.50;;;;;;6248316;23;20529;-73
2021/10/09 16:56:48;;;;;;;13.30;12.10;;;15.60;99.80;;;;;;6248288;23;20411;-74
2021/10/09 16:59:16;;;;;;;20.27;12.13;;;15.60;99.90;;;;;;6247981;23;20489;-75
2021/10/09 17:01:43;;;;;;;14.20;11.40;;;15.50;99.90;;;;;;6248230;22;20438;-75
2021/10/09 17:04:09;;;;;;;15.73;11.77;;;15.50;99.90;;;;;;6248786;23;20411;-75
2021/10/09 17:06:36;;;;;;;13.77;11.07;;;15.40;99.90;;;;;;6249660;23;20418;-75
2021/10/09 17:09:04;;;;;;;13.23;11.27;;;15.30;99.90;;;;;;6249332;23;20411;-73
2021/10/09 17:11:32;;;;;;;15.10;11.67;;;15.30;99.90;;;;;;6248276;22;20465;-75
2021/10/09 17:14:00;;;;;;;13.67;12.30;;;15.20;99.90;;;;;;6248274;23;20433;-74
2021/10/09 17:16:28;;;;;;;13.30;11.67;;;15.20;99.90;;;;;;6248412;23;20957;-74
2021/10/09 17:18:56;;;;;;;14.23;12.60;;;15.10;99.90;;;;;;6247956;23;20478;-72
2021/10/09 17:21:22;;;;;;;13.40;11.87;;;15.00;99.90;;;;;;6247642;22;20731;-74
2021/10/09 17:23:49;;;;;;;19.77;17.77;;;15.00;99.90;;;;;;6247797;23;20411;-72
2021/10/09 17:26:16;;;;;;;13.70;12.30;;;14.90;99.90;;;;;;6247387;23;20415;-72
2021/10/09 17:28:44;;;;;;;15.40;14.00;;;14.80;99.90;;;;;;6246754;23;20403;-72
2021/10/09 17:31:10;;;;;;;16.27;12.27;;;14.70;99.90;;;;;;6247384;22;20497;-72
2021/10/09 17:33:37;;;;;;;13.17;11.77;;;14.70;99.90;;;;;;6247339;23;20411;-72
2021/10/09 17:36:04;;;;;;;16.10;11.70;;;14.70;99.90;;;;;;6247391;23;20502;-72
2021/10/09 17:38:31;;;;;;;12.33;11.13;;;14.60;99.90;;;;;;6247251;23;20434;-69
2021/10/09 17:40:58;;;;;;;13.83;11.30;;;14.60;99.90;;;;;;6247790;22;20438;-74
2021/10/09 17:43:25;;;;;;;14.93;10.93;;;14.50;99.90;;;;;;6247362;23;20435;-74
2021/10/09 17:45:54;;;;;;;11.67;10.50;;;14.50;99.90;;;;;;6247013;23;20421;-74
2021/10/09 17:48:21;;;;;;;12.00;10.83;;;14.40;99.90;;;;;;6247074;23;20441;-74
2021/10/09 17:50:48;;;;;;;11.15;9.90;;;14.40;99.90;;;;;;6246183;22;20492;-74
2021/10/09 17:53:16;;;;;;;12.77;11.30;;;14.50;99.90;;;;;;6247585;23;20410;-74
2021/10/09 17:55:43;;;;;;;11.80;10.20;;;14.40;99.90;;;;;;6247936;23;20411;-74
2021/10/09 17:58:10;;;;;;;11.20;10.20;;;14.40;99.90;;;;;;6249357;23;20437;-74
2021/10/09 18:00:37;;;;;;;15.07;9.90;;;14.30;99.90;;;;;;6248923;22;20411;-72
2021/10/09 18:03:05;;;;;;;11.00;9.67;;;14.20;99.90;;;;;;6247361;23;20395;-73
2021/10/09 18:05:32;;;;;;;11.13;9.93;;;14.10;99.90;;;;;;6247305;23;20395;-71
2021/10/09 18:07:58;;;;;;;14.00;10.00;;;14.10;99.90;;;;;;6247337;23;20411;-71
2021/10/09 18:10:28;;;;;;;11.47;10.47;;;14.00;99.90;;;;;;6247051;22;20410;-71
2021/10/09 18:12:56;;;;;;;11.07;9.97;;;13.90;99.90;;;;;;6247306;23;20446;-72
2021/10/09 18:15:23;;;;;;;11.43;10.33;;;13.80;99.90;;;;;;6247035;23;20402;-71
2021/10/09 18:17:50;;;;;;;10.30;9.20;;;13.80;99.90;;;;;;6246989;23;20402;-71
2021/10/09 18:20:18;;;;;;;13.80;11.63;;;13.80;99.90;;;;;;6246860;23;20922;-71
2021/10/09 18:22:45;;;;;;;13.30;9.97;;;13.70;99.90;;;;;;6246795;23;20407;-71
2021/10/09 18:25:12;;;;;;;11.97;10.77;;;13.70;99.90;;;;;;6247318;23;20414;-72
2021/10/09 18:27:39;;;;;;;11.63;10.53;;;13.60;99.90;;;;;;6246944;23;20454;-72
2021/10/09 18:30:07;;;;;;;13.20;11.90;;;13.60;99.90;;;;;;6247651;23;20914;-74
2021/10/09 18:32:34;;;;;;;12.40;10.27;;;13.40;99.90;;;;;;6247551;22;20481;-73
2021/10/09 18:35:01;;;;;;;13.33;10.40;;;13.50;99.90;;;;;;6246845;23;20740;-72
2021/10/09 18:37:29;;;;;;;11.60;10.40;;;13.40;99.90;;;;;;6247245;23;20411;-72
2021/10/09 18:39:57;;;;;;;12.27;11.07;;;13.50;99.90;;;;;;6246789;23;20419;-72
2021/10/09 18:42:24;;;;;;;13.10;11.03;;;13.50;99.90;;;;;;6247146;22;20954;-72
2021/10/09 18:44:51;;;;;;;15.53;11.20;;;13.40;99.90;;;;;;6247716;23;20410;-72